»·PEaware :: N24W KOTH-KMFR

N24W :: KOTH-KMFR

FLIGHT INFORMATION

Flight Status: Arrived
Operator: Privately registered:
United States
More flights under this callsign
Pilot: Mark R. (11809)
Aircraft: CESSNA 550 CITATION 2/S2/BRAVO
(C550)
More flights by this aircraft type
Origin: KOTH North Bend Mun
United States
Destination: KMFR Rogue Valley Intl-Medford
United States
More flights between these airports :: More routes between these airports
Route: +OTH6 OTH SAMIE
File this flight plan on PilotEdge
Remarks:
Altitude:
(Current/Filed)
11,000ft
Speed:
(Current/Filed)
300kts
Departed: 19-Mar-18 08:58 AM
Arrived: 19-Mar-18 09:23 AM
Distance/Time
Traveled:
87nm/0:25
Distance/Time
To Go:
Arrived

Flight Plot

Page will automatically refresh every two minutes.

Flight plan parsing failed; only flown route is shown


Map Options




Map Legend


Flown Route
Filed Route
Departure Airport
Arrival Airport
Navaid (VOR, NDB)
Fix

Horizontal Profiles

Position Reports

Time Latitude Longitude Heading Altitude Ground
Speed
19-Mar-18 08:39 43.416588 -124.246849 360 11ft 0kts
19-Mar-18 08:40 43.416588 -124.246849 360 11ft 0kts
19-Mar-18 08:41 43.416588 -124.246849 360 11ft 0kts
19-Mar-18 08:42 43.416588 -124.246849 360 11ft 0kts
19-Mar-18 08:43 43.416588 -124.246849 360 11ft 0kts
19-Mar-18 08:44 43.416588 -124.246849 360 11ft 0kts
19-Mar-18 08:45 43.416588 -124.246849 360 11ft 0kts
19-Mar-18 08:46 43.416588 -124.246849 360 11ft 0kts
19-Mar-18 08:47 43.416588 -124.246849 360 11ft 0kts
19-Mar-18 08:48 43.416588 -124.246849 360 11ft 0kts
19-Mar-18 08:49 43.416588 -124.246849 360 11ft 0kts
19-Mar-18 08:50 43.416588 -124.246849 360 11ft 0kts
19-Mar-18 08:51 43.416588 -124.246849 360 11ft 0kts
19-Mar-18 08:52 43.416588 -124.246849 360 11ft 0kts
19-Mar-18 08:53 43.417199 -124.246932 351 11ft 3kts
19-Mar-18 08:54 43.418329 -124.246969 329 11ft 4kts
19-Mar-18 08:55 43.419023 -124.247024 61 10ft 0kts
19-Mar-18 08:56 43.419323 -124.245854 151 10ft 0kts
19-Mar-18 08:57 43.399344 -124.236071 200 1183ft 129kts
19-Mar-18 08:58 43.404619 -124.281157 330 3718ft 154kts
19-Mar-18 08:59 43.424248 -124.238105 100 5849ft 210kts
19-Mar-18 09:00 43.402599 -124.155209 130 8017ft 257kts
19-Mar-18 09:01 43.355253 -124.077376 130 10287ft 277kts
19-Mar-18 09:02 43.300914 -123.993954 131 10997ft 298kts
19-Mar-18 09:03 43.245207 -123.909386 131 10998ft 297kts
19-Mar-18 09:04 43.190182 -123.826166 131 10999ft 294kts
19-Mar-18 09:05 43.135150 -123.743190 131 10999ft 296kts
19-Mar-18 09:06 43.079816 -123.660005 132 11019ft 298kts
19-Mar-18 09:07 43.023722 -123.575938 132 11021ft 303kts
19-Mar-18 09:08 42.967146 -123.491395 132 11019ft 305kts
19-Mar-18 09:09 42.909883 -123.405791 132 11020ft 306kts
19-Mar-18 09:10 42.852463 -123.320449 132 11020ft 305kts
19-Mar-18 09:11 42.796324 -123.236811 132 10861ft 287kts
19-Mar-18 09:12 42.745891 -123.162423 132 10012ft 235kts
19-Mar-18 09:13 42.703345 -123.099991 132 8324ft 221kts
19-Mar-18 09:14 42.663852 -123.041904 132 7164ft 201kts
19-Mar-18 09:15 42.618523 -123.003136 158 6445ft 205kts
19-Mar-18 09:16 42.578277 -122.980576 157 5609ft 177kts
19-Mar-18 09:17 42.525433 -122.952303 158 4198ft 168kts
19-Mar-18 09:18 42.483559 -122.930227 158 3350ft 151kts
19-Mar-18 09:19 42.453731 -122.914695 158 2695ft 129kts
19-Mar-18 09:20 42.421653 -122.897778 158 2083ft 118kts
19-Mar-18 09:21 42.390555 -122.881464 157 1445ft 120kts
19-Mar-18 09:22 42.376199 -122.874529 248 1304ft 9kts
19-Mar-18 09:23 42.376086 -122.874926 249 1303ft 0kts
19-Mar-18 09:24 42.376488 -122.877059 237 1301ft 16kts
19-Mar-18 09:25 42.376019 -122.878974 114 1300ft 0kts
19-Mar-18 09:26 42.376019 -122.878974 114 1300ft 0kts
19-Mar-18 09:27 42.376019 -122.878974 114 1300ft 0kts
19-Mar-18 09:28 42.376019 -122.878974 114 1300ft 0kts
19-Mar-18 09:29 42.376019 -122.878974 114 1300ft 0kts
19-Mar-18 09:30 42.376019 -122.878974 114 1300ft 0kts
19-Mar-18 09:31 42.376019 -122.878974 114 1300ft 0kts
19-Mar-18 09:32 42.376019 -122.878974 114 1300ft 0kts
19-Mar-18 09:33 42.376019 -122.878974 114 1300ft 0kts
19-Mar-18 09:34 42.376019 -122.878974 114 1300ft 0kts
19-Mar-18 09:35 42.376019 -122.878974 114 1300ft 0kts
19-Mar-18 09:36 42.376019 -122.878974 114 1300ft 0kts
19-Mar-18 09:37 42.376019 -122.878974 114 1300ft 0kts

Navigation Log

Ident Type
Flight plan parsing failed, navigation log unavailable